Time;durP1;ratioP1;P1;durP2;ratioP2;P2;SDS_P1;SDS_P2;PMS_P1;PMS_P2;Temp;Humidity;BMP_temperature;BMP_pressure;BME280_temperature;BME280_humidity;BME280_pressure;Samples;Min_cycle;Max_cycle;Signal;HPM_P1;HPM_P2
2022/10/12 00:00:57;;;;;;;53.20;36.30;;;;;;;15.40;79.82;100037.16;5053508;28;20086;-68
2022/10/12 00:03:23;;;;;;;55.92;38.20;;;;;;;15.33;80.11;100034.13;5034854;28;20032;-69
2022/10/12 00:06:02;;;;;;;55.05;35.53;;;;;;;15.28;80.86;100044.44;5033685;28;20112;-69
2022/10/12 00:08:28;;;;;;;57.08;37.55;;;;;;;15.21;80.68;100038.59;5034009;28;20083;-70
2022/10/12 00:10:53;;;;;;;55.17;37.72;;;;;;;15.26;80.93;100041.16;5034012;28;20056;-70
2022/10/12 00:13:19;;;;;;;62.45;39.25;;;;;;;15.16;81.13;100044.44;5032699;28;20018;-70
2022/10/12 00:15:45;;;;;;;58.92;37.53;;;;;;;15.09;82.11;100047.03;5033122;28;20021;-68
2022/10/12 00:18:10;;;;;;;58.65;37.45;;;;;;;14.90;83.16;100039.97;5033726;28;20075;-69
2022/10/12 00:20:36;;;;;;;57.63;39.13;;;;;;;14.84;83.61;100044.19;5033472;28;20027;-69
2022/10/12 00:23:01;;;;;;;62.42;37.95;;;;;;;14.72;84.97;100043.00;5033563;28;20576;-70
2022/10/12 00:25:27;;;;;;;61.30;40.47;;;;;;;14.80;83.50;100034.78;5033651;28;20044;-70
2022/10/12 00:27:52;;;;;;;66.63;42.33;;;;;;;14.92;83.22;100037.63;5032982;28;20036;-70
2022/10/12 00:30:18;;;;;;;61.65;38.22;;;;;;;14.96;82.61;100037.75;5033264;28;20036;-70
2022/10/12 00:32:43;;;;;;;58.13;39.50;;;;;;;14.93;83.20;100039.25;5033585;28;20045;-70
2022/10/12 00:35:09;;;;;;;57.78;39.55;;;;;;;15.04;83.08;100030.34;5035127;28;20048;-69
2022/10/12 00:37:34;;;;;;;63.10;41.45;;;;;;;15.08;82.73;100031.28;5053456;28;20035;-69
2022/10/12 00:40:00;;;;;;;58.50;40.67;;;;;;;15.11;82.99;100033.41;5053300;28;20096;-70
2022/10/12 00:42:26;;;;;;;59.28;40.13;;;;;;;15.17;82.38;100037.63;5052194;28;20364;-70
2022/10/12 00:44:51;;;;;;;58.17;39.55;;;;;;;15.08;82.69;100040.56;5046693;28;20053;-70
2022/10/12 00:47:35;;;;;;;62.55;40.17;;;;;;;14.90;84.87;100036.31;5033379;28;20029;-70
2022/10/12 00:50:22;;;;;;;55.92;37.25;;;;;;;15.04;83.43;100042.47;5033157;28;20108;-70
2022/10/12 00:53:02;;;;;;;58.97;38.47;;;;;;;15.13;82.63;100039.50;5033261;28;20032;-69
2022/10/12 00:55:32;;;;;;;54.80;36.47;;;;;;;15.23;81.89;100036.22;5032906;28;20104;-69
2022/10/12 00:57:58;;;;;;;62.10;38.17;;;;;;;15.27;81.41;100039.97;5048650;28;20032;-70
2022/10/12 01:00:24;;;;;;;54.08;37.95;;;;;;;15.27;82.22;100028.69;5034615;28;20488;-69
2022/10/12 01:02:53;;;;;;;59.47;38.50;;;;;;;15.25;82.86;100036.69;5033165;28;20106;-70
2022/10/12 01:05:19;;;;;;;54.35;36.13;;;;;;;15.25;83.17;100027.41;5033085;28;20021;-70
2022/10/12 01:07:44;;;;;;;50.60;35.58;;;;;;;15.29;81.34;100028.38;5032915;28;20379;-70
2022/10/12 01:10:11;;;;;;;57.40;37.53;;;;;;;15.34;81.29;100035.75;5032576;28;20029;-70
2022/10/12 01:12:39;;;;;;;62.70;36.47;;;;;;;15.35;80.85;100028.94;5031987;28;20034;-69
2022/10/12 01:15:06;;;;;;;55.80;37.13;;;;;;;15.39;81.02;100029.88;5032677;28;20108;-70
2022/10/12 01:17:47;;;;;;;58.20;35.40;;;;;;;15.40;80.47;100037.16;5032756;28;20029;-69
2022/10/12 01:20:51;;;;;;;62.88;37.35;;;;;;;15.30;81.04;100028.00;5032629;28;20034;-70
2022/10/12 01:23:41;;;;;;;51.90;36.33;;;;;;;15.35;81.13;100031.75;5031980;28;20423;-70
2022/10/12 01:26:30;;;;;;;57.75;35.00;;;;;;;15.33;82.02;100031.31;5032659;28;20053;-69
2022/10/12 01:29:20;;;;;;;53.33;34.28;;;;;;;15.27;81.43;100034.34;5032377;28;20060;-70
2022/10/12 01:31:50;;;;;;;52.63;36.10;;;;;;;15.28;82.06;100032.34;5032341;28;20103;-69
2022/10/12 01:34:31;;;;;;;51.67;36.00;;;;;;;15.27;81.57;100025.88;5032625;28;20499;-69
2022/10/12 01:37:09;;;;;;;57.85;35.80;;;;;;;15.26;81.57;100026.22;5032331;28;20033;-70
2022/10/12 01:39:58;;;;;;;55.17;35.67;;;;;;;15.30;80.98;100028.00;5032613;28;20404;-70
2022/10/12 01:42:31;;;;;;;45.85;32.92;;;;;;;15.38;80.24;100039.50;5031648;28;20073;-70
2022/10/12 01:45:05;;;;;;;50.13;32.08;;;;;;;15.38;79.69;100043.13;5038522;28;20132;-70
2022/10/12 01:47:32;;;;;;;52.90;34.08;;;;;;;15.40;79.84;100037.16;5052039;28;20033;-70
2022/10/12 01:50:00;;;;;;;51.33;32.92;;;;;;;15.40;79.57;100039.97;5049861;28;20480;-69
2022/10/12 01:52:43;;;;;;;49.22;33.67;;;;;;;15.43;79.28;100039.25;5031935;28;20104;-70
2022/10/12 01:55:42;;;;;;;49.78;31.52;;;;;;;15.45;78.52;100039.75;5032330;28;20041;-69
2022/10/12 01:58:26;;;;;;;44.15;30.20;;;;;;;15.44;78.31;100041.72;5044728;28;20114;-70
2022/10/12 02:00:59;;;;;;;47.47;31.85;;;;;;;15.43;77.95;100042.91;5036222;28;20692;-70
2022/10/12 02:03:42;;;;;;;50.03;32.95;;;;;;;15.42;78.13;100034.78;5032217;28;20031;-70
2022/10/12 02:06:31;;;;;;;51.85;31.90;;;;;;;15.38;78.42;100037.50;5031235;28;20170;-70
2022/10/12 02:09:06;;;;;;;46.77;31.47;;;;;;;15.42;78.49;100041.25;5031988;28;20060;-70
2022/10/12 02:11:37;;;;;;;45.20;29.02;;;;;;;15.39;78.14;100033.53;5037107;28;20088;-70
2022/10/12 02:14:15;;;;;;;44.95;30.45;;;;;;;15.25;78.81;100042.34;5051972;28;20025;-70
2022/10/12 02:16:52;;;;;;;47.10;29.48;;;;;;;15.26;79.20;100043.13;5035140;28;20040;-69
2022/10/12 02:19:25;;;;;;;51.95;30.67;;;;;;;15.26;78.75;100037.50;5031811;28;20026;-69
2022/10/12 02:21:54;;;;;;;43.67;30.20;;;;;;;15.09;79.33;100047.03;5031897;28;20099;-70
2022/10/12 02:24:22;;;;;;;42.38;29.05;;;;;;;15.09;79.23;100047.84;5032018;28;20053;-70
2022/10/12 02:26:50;;;;;;;47.92;30.70;;;;;;;15.16;78.71;100056.53;5045189;28;20021;-70
2022/10/12 02:29:21;;;;;;;43.25;28.63;;;;;;;15.19;78.74;100057.00;5051753;28;20036;-70
2022/10/12 02:32:00;;;;;;;42.45;28.35;;;;;;;15.26;77.79;100054.41;5045864;28;20044;-69
2022/10/12 02:34:46;;;;;;;46.13;28.92;;;;;;;15.25;77.55;100056.41;5031135;28;20036;-69
2022/10/12 02:37:27;;;;;;;40.85;28.08;;;;;;;15.26;77.82;100055.25;5046240;28;20043;-69
2022/10/12 02:39:55;;;;;;;41.92;28.90;;;;;;;15.23;78.26;100053.13;5049566;28;20017;-69
2022/10/12 02:42:27;;;;;;;40.95;29.55;;;;;;;15.22;78.34;100051.50;5040905;28;20048;-69
2022/10/12 02:44:55;;;;;;;44.35;31.77;;;;;;;15.18;78.24;100053.34;5030919;28;20112;-70
2022/10/12 02:47:25;;;;;;;46.42;30.25;;;;;;;15.18;78.68;100052.56;5035229;28;20025;-69
2022/10/12 02:49:53;;;;;;;42.58;29.00;;;;;;;15.16;78.79;100047.25;5049655;28;20033;-70
2022/10/12 02:52:19;;;;;;;40.60;30.85;;;;;;;15.08;79.31;100049.03;5050826;28;20206;-69
2022/10/12 02:54:44;;;;;;;43.65;30.10;;;;;;;15.00;79.38;100062.06;5050888;28;20024;-70
2022/10/12 02:57:10;;;;;;;45.15;29.90;;;;;;;14.99;79.25;100059.56;5033451;28;20021;-69
2022/10/12 02:59:35;;;;;;;50.22;31.83;;;;;;;14.86;79.86;100065.19;5031264;28;20021;-70
2022/10/12 03:02:01;;;;;;;48.58;32.35;;;;;;;14.85;79.96;100062.75;5030193;28;20045;-70
2022/10/12 03:04:26;;;;;;;43.50;31.35;;;;;;;14.87;79.41;100054.75;5040093;28;20036;-70
2022/10/12 03:06:51;;;;;;;48.67;32.40;;;;;;;14.95;79.35;100067.09;5035449;28;20060;-69
2022/10/12 03:09:17;;;;;;;44.42;31.10;;;;;;;14.97;79.15;100067.56;5030783;28;20022;-70
2022/10/12 03:11:43;;;;;;;52.97;31.42;;;;;;;14.96;79.25;100063.94;5039383;28;20021;-70
2022/10/12 03:14:16;;;;;;;45.05;30.35;;;;;;;15.04;79.11;100059.34;5050700;28;20048;-70
2022/10/12 03:16:42;;;;;;;51.97;31.98;;;;;;;15.04;78.85;100050.91;5050558;28;20021;-69
2022/10/12 03:19:08;;;;;;;45.95;31.02;;;;;;;15.02;78.85;100048.44;5051941;28;20045;-69
2022/10/12 03:21:34;;;;;;;41.88;28.42;;;;;;;15.05;78.90;100051.72;5033873;28;20049;-70
2022/10/12 03:23:59;;;;;;;49.25;31.67;;;;;;;15.01;79.14;100058.06;5034324;28;20029;-70
2022/10/12 03:26:25;;;;;;;43.05;30.00;;;;;;;14.91;79.15;100049.25;5033749;28;20049;-70
2022/10/12 03:28:51;;;;;;;47.45;28.88;;;;;;;14.89;79.46;100058.03;5034221;28;20566;-70
2022/10/12 03:31:16;;;;;;;39.45;29.02;;;;;;;14.86;79.68;100058.75;5034395;28;20032;-69
2022/10/12 03:33:42;;;;;;;45.08;28.58;;;;;;;14.84;79.60;100052.63;5034088;28;20034;-70
2022/10/12 03:36:08;;;;;;;47.10;29.98;;;;;;;14.90;78.34;100062.50;5048299;28;20028;-69
2022/10/12 03:38:34;;;;;;;47.20;28.98;;;;;;;14.81;79.33;100064.59;5054023;28;20499;-70
2022/10/12 03:41:00;;;;;;;41.67;28.00;;;;;;;14.82;78.88;100064.25;5051662;28;20068;-68
2022/10/12 03:43:25;;;;;;;47.60;28.52;;;;;;;14.85;79.07;100066.38;5039003;28;20052;-70
2022/10/12 03:45:51;;;;;;;43.17;30.30;;;;;;;14.74;79.58;100051.09;5034159;28;20069;-69
2022/10/12 03:48:17;;;;;;;43.83;29.92;;;;;;;14.85;78.91;100065.56;5033970;28;20022;-69
2022/10/12 03:50:50;;;;;;;44.40;28.63;;;;;;;14.84;78.47;100063.88;5046154;28;20031;-69
2022/10/12 03:53:17;;;;;;;37.72;28.00;;;;;;;14.91;78.41;100068.97;5053639;28;20025;-69
2022/10/12 03:55:43;;;;;;;36.22;26.70;;;;;;;14.89;78.56;100066.50;5050052;28;20506;-70
2022/10/12 03:58:08;;;;;;;41.00;28.45;;;;;;;14.84;78.48;100063.88;5033700;28;20488;-70
2022/10/12 04:00:34;;;;;;;41.95;28.42;;;;;;;14.88;78.44;100068.47;5033681;28;20025;-69
2022/10/12 04:03:01;;;;;;;39.85;27.52;;;;;;;14.87;78.56;100066.84;5042033;28;20040;-69
2022/10/12 04:05:27;;;;;;;39.45;27.25;;;;;;;14.92;78.61;100071.41;5038002;28;20026;-69
2022/10/12 04:07:52;;;;;;;38.65;27.85;;;;;;;14.91;78.70;100069.78;5033405;28;20499;-69
2022/10/12 04:10:18;;;;;;;48.20;28.40;;;;;;;14.87;78.63;100068.84;5033254;28;20030;-69
2022/10/12 04:12:44;;;;;;;46.47;28.88;;;;;;;14.84;79.06;100067.53;5047593;28;20033;-68
2022/10/12 04:15:10;;;;;;;52.65;30.92;;;;;;;14.91;78.84;100072.59;5053289;28;20029;-69
2022/10/12 04:17:35;;;;;;;43.75;27.33;;;;;;;14.93;78.45;100064.63;5048165;28;20071;-72
2022/10/12 04:20:00;;;;;;;45.83;28.23;;;;;;;14.90;78.70;100067.31;5037562;28;20500;-71
2022/10/12 04:22:26;;;;;;;44.13;28.88;;;;;;;14.85;78.76;100068.38;5040513;28;20614;-72
2022/10/12 04:24:51;;;;;;;40.20;27.13;;;;;;;14.77;79.23;100069.28;5053178;28;20092;-72
2022/10/12 04:27:17;;;;;;;42.20;27.38;;;;;;;14.82;78.69;100078.34;5036731;28;20029;-73
2022/10/12 04:29:42;;;;;;;51.53;28.15;;;;;;;14.54;80.64;100078.94;5033984;28;20072;-70
2022/10/12 04:32:08;;;;;;;41.72;27.50;;;;;;;14.73;79.16;100064.38;5043687;28;20083;-71
2022/10/12 04:34:35;;;;;;;45.55;29.23;;;;;;;14.81;78.98;100068.25;5032538;28;20118;-71
2022/10/12 04:37:01;;;;;;;47.70;28.48;;;;;;;14.88;79.43;100067.66;5033738;28;20029;-72
2022/10/12 04:39:27;;;;;;;40.92;27.45;;;;;;;14.92;78.91;100071.41;5032891;28;20079;-71
2022/10/12 04:41:53;;;;;;;49.10;29.02;;;;;;;14.76;79.45;100074.09;5038027;28;20022;-70
2022/10/12 04:44:18;;;;;;;49.50;30.98;;;;;;;14.77;79.51;100080.56;5032784;28;20029;-70
2022/10/12 04:46:44;;;;;;;50.45;29.38;;;;;;;14.83;79.47;100079.16;5042452;28;20050;-69
2022/10/12 04:49:09;;;;;;;52.13;29.83;;;;;;;14.84;79.36;100086.41;5038447;28;20061;-71
2022/10/12 04:51:35;;;;;;;46.40;29.05;;;;;;;14.93;78.92;100083.53;5031557;28;20044;-67
2022/10/12 04:54:00;;;;;;;56.95;31.10;;;;;;;14.95;78.95;100090.44;5032776;28;20055;-68
2022/10/12 04:56:26;;;;;;;46.72;28.55;;;;;;;14.91;78.87;100094.31;5032591;28;20095;-68
2022/10/12 04:58:51;;;;;;;55.88;30.00;;;;;;;14.73;80.10;100097.31;5032650;28;20103;-68
2022/10/12 05:01:16;;;;;;;61.70;32.55;;;;;;;14.67;80.29;100105.13;5032548;28;20033;-68
2022/10/12 05:03:42;;;;;;;55.65;34.35;;;;;;;14.37;81.97;100101.63;5037338;28;20024;-68
2022/10/12 05:06:07;;;;;;;59.72;35.40;;;;;;;14.13;83.82;100094.72;5051912;28;20021;-68
2022/10/12 05:08:33;;;;;;;53.15;33.70;;;;;;;14.17;83.97;100102.13;5048638;28;20415;-68
2022/10/12 05:10:58;;;;;;;52.35;34.13;;;;;;;14.07;85.15;100104.53;5032820;28;20128;-68
2022/10/12 05:13:25;;;;;;;52.75;34.30;;;;;;;13.79;86.64;100110.69;5047042;28;20029;-68
2022/10/12 05:15:51;;;;;;;62.03;36.88;;;;;;;13.95;86.33;100110.91;5048935;28;20348;-68
2022/10/12 05:18:16;;;;;;;59.22;39.72;;;;;;;14.01;86.02;100120.81;5038799;28;20380;-68
2022/10/12 05:20:43;;;;;;;59.40;37.38;;;;;;;13.63;88.05;100114.09;5030129;28;20033;-68
2022/10/12 05:23:10;;;;;;;64.18;38.35;;;;;;;13.83;88.07;100122.91;5031821;28;20450;-68
2022/10/12 05:25:35;;;;;;;64.65;38.75;;;;;;;13.95;87.26;100114.56;5032072;28;20041;-68
2022/10/12 05:28:01;;;;;;;78.78;42.10;;;;;;;14.04;86.91;100118.09;5041989;28;20037;-68
2022/10/12 05:30:27;;;;;;;73.97;42.55;;;;;;;13.99;87.07;100121.13;5051913;28;20025;-68
2022/10/12 05:32:52;;;;;;;74.03;39.55;;;;;;;13.80;87.49;100124.41;5032148;28;20071;-68
2022/10/12 05:35:18;;;;;;;67.68;39.38;;;;;;;13.50;90.51;100121.59;5031053;28;20026;-69
2022/10/12 05:37:44;;;;;;;78.38;42.42;;;;;;;13.56;90.11;100120.25;5032400;28;20053;-68
2022/10/12 05:40:10;;;;;;;70.72;41.75;;;;;;;13.76;90.10;100129.09;5031105;28;20116;-68
2022/10/12 05:42:35;;;;;;;69.70;41.13;;;;;;;13.71;89.07;100132.06;5030897;28;20095;-69
2022/10/12 05:45:01;;;;;;;70.03;38.85;;;;;;;13.88;88.51;100133.94;5041711;28;20049;-68
2022/10/12 05:47:26;;;;;;;72.32;39.25;;;;;;;13.79;88.91;100136.84;5033129;28;20096;-69
2022/10/12 05:49:52;;;;;;;61.60;38.70;;;;;;;13.87;88.41;100138.75;5031556;28;20052;-68
2022/10/12 05:52:17;;;;;;;61.28;40.88;;;;;;;13.86;88.56;100145.53;5031606;28;20029;-68
2022/10/12 05:54:42;;;;;;;74.10;41.55;;;;;;;13.76;88.86;100137.53;5030899;28;20029;-68
2022/10/12 05:57:08;;;;;;;68.80;40.35;;;;;;;13.84;88.87;100141.44;5031567;28;20029;-68
2022/10/12 05:59:33;;;;;;;75.90;41.35;;;;;;;13.87;88.82;100147.19;5030647;28;20032;-68
2022/10/12 06:02:00;;;;;;;68.35;44.30;;;;;;;13.96;89.12;100149.13;5046571;28;20040;-68
2022/10/12 06:04:25;;;;;;;68.55;42.15;;;;;;;14.01;88.60;100151.75;5048599;28;20036;-69
2022/10/12 06:06:51;;;;;;;68.53;42.22;;;;;;;13.96;89.19;100152.75;5050943;28;20411;-68
2022/10/12 06:09:16;;;;;;;62.53;40.03;;;;;;;14.22;87.60;100156.53;5040878;28;20025;-68
2022/10/12 06:11:42;;;;;;;71.57;40.20;;;;;;;14.21;87.58;100161.34;5032715;28;20104;-68
2022/10/12 06:14:07;;;;;;;67.95;41.33;;;;;;;14.15;87.34;100166.34;5030706;28;20030;-68
2022/10/12 06:16:33;;;;;;;64.50;38.60;;;;;;;14.20;87.95;100175.75;5042698;28;20036;-68
2022/10/12 06:19:02;;;;;;;60.75;38.65;;;;;;;14.11;87.88;100173.81;5032539;28;20041;-68
2022/10/12 06:21:27;;;;;;;56.63;36.97;;;;;;;13.89;88.74;100175.81;5034086;28;20030;-68
2022/10/12 06:23:53;;;;;;;60.15;38.28;;;;;;;13.82;89.14;100180.31;5034645;28;20034;-69
2022/10/12 06:26:18;;;;;;;58.15;36.60;;;;;;;13.81;89.39;100182.28;5039662;28;20405;-69
2022/10/12 06:28:44;;;;;;;61.60;36.90;;;;;;;14.15;87.82;100186.03;5033922;28;20476;-68
2022/10/12 06:31:10;;;;;;;54.15;35.47;;;;;;;14.31;86.78;100185.44;5035767;28;20442;-68
2022/10/12 06:33:35;;;;;;;52.33;31.70;;;;;;;14.18;86.15;100190.19;5039855;28;20021;-68
2022/10/12 06:36:01;;;;;;;54.40;32.22;;;;;;;14.46;84.74;100184.00;5035810;28;20099;-68
2022/10/12 06:38:27;;;;;;;52.67;32.58;;;;;;;14.40;84.85;100190.97;5037498;28;20112;-68
2022/10/12 06:40:52;;;;;;;47.95;31.35;;;;;;;14.35;84.50;100194.81;5037328;28;20025;-68
2022/10/12 06:43:18;;;;;;;49.53;30.83;;;;;;;14.63;83.35;100193.44;5028999;28;20104;-68
2022/10/12 06:45:44;;;;;;;46.42;29.10;;;;;;;14.66;82.99;100196.41;5033398;28;20054;-69
2022/10/12 06:48:10;;;;;;;50.65;30.48;;;;;;;14.84;82.76;100199.91;5044509;28;23507;-71
2022/10/12 06:50:36;;;;;;;44.15;27.02;;;;;;;14.96;81.21;100201.94;5035689;28;20020;-69
2022/10/12 06:53:01;;;;;;;38.00;25.30;;;;;;;14.97;81.20;100192.31;5046854;28;20594;-72
2022/10/12 06:55:27;;;;;;;39.53;25.30;;;;;;;15.06;80.96;100200.69;5043034;28;20459;-69
2022/10/12 06:57:54;;;;;;;35.55;23.55;;;;;;;14.97;80.28;100188.69;5038447;28;20017;-68
2022/10/12 07:00:20;;;;;;;36.63;23.55;;;;;;;15.01;80.60;100192.44;5034812;28;20518;-69
2022/10/12 07:02:49;;;;;;;36.17;22.23;;;;;;;15.16;79.88;100199.41;5041080;28;20159;-68
2022/10/12 07:05:15;;;;;;;36.13;21.30;;;;;;;15.04;78.82;100203.03;5051868;28;20024;-69
2022/10/12 07:07:41;;;;;;;30.33;20.30;;;;;;;15.05;78.17;100204.66;5041514;28;20025;-69
2022/10/12 07:10:07;;;;;;;30.80;19.58;;;;;;;14.90;78.62;100211.78;5049032;28;20352;-69
2022/10/12 07:12:35;;;;;;;33.08;19.40;;;;;;;15.14;77.76;100208.22;5046610;28;20059;-69
2022/10/12 07:15:01;;;;;;;35.97;16.95;;;;;;;15.22;77.45;100216.91;5052072;28;20033;-71
2022/10/12 07:17:27;;;;;;;25.58;16.40;;;;;;;15.24;75.70;100217.38;5047745;28;20029;-69
2022/10/12 07:19:52;;;;;;;25.75;15.73;;;;;;;15.26;76.01;100215.88;5050422;28;20028;-68
2022/10/12 07:22:18;;;;;;;26.27;15.20;;;;;;;15.35;76.46;100218.59;5048588;28;20021;-70
2022/10/12 07:24:43;;;;;;;22.45;15.35;;;;;;;15.35;75.73;100203.69;5051570;28;20553;-70
2022/10/12 07:27:10;;;;;;;32.47;14.80;;;;;;;15.46;75.39;100213.34;5052474;28;20028;-71
2022/10/12 07:29:37;;;;;;;19.95;13.20;;;;;;;15.28;75.24;100213.53;5053376;28;20462;-70
2022/10/12 07:32:03;;;;;;;25.95;13.32;;;;;;;15.36;74.97;100220.22;5053051;28;20112;-70
2022/10/12 07:34:29;;;;;;;24.75;11.90;;;;;;;15.26;74.33;100215.88;5045275;28;20021;-70
2022/10/12 07:36:55;;;;;;;19.65;12.02;;;;;;;15.42;74.10;100213.19;5048818;28;20032;-69
2022/10/12 07:39:21;;;;;;;20.15;11.40;;;;;;;15.36;74.52;100211.78;5043138;28;20017;-70
2022/10/12 07:41:48;;;;;;;17.95;10.48;;;;;;;15.49;74.29;100206.16;5043047;28;20502;-69
2022/10/12 07:44:14;;;;;;;19.10;10.73;;;;;;;15.60;73.42;100212.16;5041715;28;20025;-69
2022/10/12 07:46:40;;;;;;;18.73;11.13;;;;;;;15.53;72.57;100213.56;5035534;28;20483;-68
2022/10/12 07:49:06;;;;;;;17.40;10.88;;;;;;;15.61;72.53;100213.81;5051682;28;20029;-68
2022/10/12 07:51:32;;;;;;;22.48;12.23;;;;;;;15.67;72.54;100218.88;5042697;28;20029;-68
2022/10/12 07:53:59;;;;;;;19.77;10.88;;;;;;;15.63;72.54;100203.00;5039589;28;20048;-70
2022/10/12 07:56:25;;;;;;;17.27;10.80;;;;;;;15.73;71.74;100219.47;5044304;28;20033;-67
2022/10/12 07:58:55;;;;;;;17.40;10.23;;;;;;;15.54;70.98;100215.19;5038433;28;20032;-67
2022/10/12 08:01:24;;;;;;;15.52;9.57;;;;;;;15.70;70.87;100206.06;5035148;28;20029;-67
2022/10/12 08:03:51;;;;;;;16.48;9.00;;;;;;;15.66;71.32;100207.94;5034955;28;20064;-67
2022/10/12 08:06:22;;;;;;;25.50;9.90;;;;;;;15.67;70.90;100207.59;5038721;28;20041;-68
2022/10/12 08:08:48;;;;;;;18.13;9.73;;;;;;;15.85;69.93;100208.16;5032662;28;20073;-68
2022/10/12 08:11:14;;;;;;;17.90;10.68;;;;;;;15.78;69.71;100209.94;5040722;28;20060;-67
2022/10/12 08:13:40;;;;;;;19.85;10.48;;;;;;;15.91;68.77;100211.63;5036695;28;20049;-67
2022/10/12 08:16:09;;;;;;;19.95;11.02;;;;;;;15.88;68.55;100211.47;5042099;28;20483;-67
2022/10/12 08:18:35;;;;;;;23.90;11.00;;;;;;;15.98;68.69;100213.84;5045999;28;20398;-67
2022/10/12 08:21:04;;;;;;;21.63;11.45;;;;;;;16.07;68.18;100211.72;5040648;28;20030;-68
2022/10/12 08:23:29;;;;;;;23.60;11.10;;;;;;;16.14;67.45;100214.75;5045468;28;20522;-68
2022/10/12 08:25:56;;;;;;;16.88;9.23;;;;;;;16.09;67.40;100217.81;5039178;28;20032;-68
2022/10/12 08:28:23;;;;;;;22.20;9.38;;;;;;;16.26;66.86;100215.91;5033038;28;20041;-71
2022/10/12 08:30:49;;;;;;;16.67;9.20;;;;;;;16.44;66.99;100212.81;5035882;28;20064;-68
2022/10/12 08:33:16;;;;;;;17.48;9.23;;;;;;;16.10;66.94;100224.28;5044976;28;20488;-68
2022/10/12 08:35:42;;;;;;;27.25;9.38;;;;;;;16.04;68.34;100223.69;5042427;28;20033;-68
2022/10/12 08:38:11;;;;;;;20.95;9.52;;;;;;;16.31;67.69;100214.84;5047696;28;20051;-68
2022/10/12 08:40:54;;;;;;;16.67;9.48;;;;;;;16.39;67.46;100223.16;5053363;28;20024;-68
2022/10/12 08:43:25;;;;;;;17.08;8.70;;;;;;;16.50;66.79;100220.69;5034052;28;20154;-67
2022/10/12 08:45:59;;;;;;;28.23;10.27;;;;;;;16.54;66.75;100224.44;5040762;28;20054;-67
2022/10/12 08:48:50;;;;;;;17.30;10.27;;;;;;;16.69;65.54;100217.22;5032835;28;20037;-70
2022/10/12 08:51:21;;;;;;;20.23;9.23;;;;;;;16.52;65.63;100221.16;5033208;28;20471;-67
2022/10/12 08:54:11;;;;;;;13.73;8.90;;;;;;;16.49;65.54;100218.22;5037684;28;20033;-68
2022/10/12 08:56:39;;;;;;;15.52;8.98;;;;;;;16.44;64.84;100218.47;5036924;28;20033;-68
2022/10/12 08:59:07;;;;;;;19.08;7.32;;;;;;;16.66;64.00;100222.75;5038151;28;20459;-67
2022/10/12 09:01:49;;;;;;;15.32;8.00;;;;;;;16.81;63.59;100216.31;5050776;28;20031;-67
2022/10/12 09:04:39;;;;;;;19.83;8.73;;;;;;;16.87;64.18;100218.91;5052545;28;20432;-67
2022/10/12 09:07:25;;;;;;;25.02;9.13;;;;;;;16.98;63.98;100211.56;5052358;28;20027;-67
2022/10/12 09:10:09;;;;;;;18.00;9.85;;;;;;;17.06;64.25;100221.09;5051889;28;20116;-67
2022/10/12 09:12:44;;;;;;;20.15;10.25;;;;;;;17.26;64.04;100216.38;5044966;28;20049;-67
2022/10/12 09:15:24;;;;;;;26.17;11.32;;;;;;;17.11;63.29;100215.16;5046632;28;20039;-67
2022/10/12 09:17:54;;;;;;;17.95;10.05;;;;;;;16.33;65.50;100227.44;5049918;28;20017;-67
2022/10/12 09:20:31;;;;;;;19.80;11.25;;;;;;;16.14;66.38;100228.84;5050830;28;20025;-67
2022/10/12 09:23:15;;;;;;;25.05;11.63;;;;;;;16.41;66.14;100215.19;5038551;28;20079;-67
2022/10/12 09:25:41;;;;;;;19.45;11.88;;;;;;;16.65;65.42;100218.28;5051134;28;20074;-67
2022/10/12 09:28:21;;;;;;;19.80;11.85;;;;;;;16.61;64.81;100212.53;5034598;28;20025;-67
2022/10/12 09:31:08;;;;;;;22.45;10.65;;;;;;;16.79;64.75;100209.41;5041448;28;20147;-68
2022/10/12 09:33:46;;;;;;;31.30;12.70;;;;;;;16.96;63.52;100214.75;5037083;28;20032;-67
2022/10/12 09:36:18;;;;;;;56.17;13.40;;;;;;;17.10;63.53;100213.53;5038295;28;20044;-66
2022/10/12 09:38:44;;;;;;;45.75;13.35;;;;;;;17.24;62.90;100213.91;5044836;28;20031;-67
2022/10/12 09:41:20;;;;;;;21.17;11.35;;;;;;;17.29;62.96;100214.84;5043013;28;20021;-68
2022/10/12 09:43:49;;;;;;;22.92;11.45;;;;;;;17.47;62.33;100207.63;5046590;28;20025;-67
2022/10/12 09:46:26;;;;;;;16.70;11.00;;;;;;;17.66;61.45;100201.25;5035112;28;20041;-66
2022/10/12 09:48:57;;;;;;;22.05;11.27;;;;;;;17.74;61.88;100205.09;5041218;28;20033;-66
2022/10/12 09:51:23;;;;;;;18.73;10.68;;;;;;;17.60;61.76;100202.72;5032128;28;20029;-67
2022/10/12 09:53:49;;;;;;;15.30;9.55;;;;;;;17.62;62.44;100203.16;5043204;28;20048;-68
2022/10/12 09:56:23;;;;;;;14.55;9.68;;;;;;;17.57;61.63;100203.47;5032312;28;20113;-66
2022/10/12 09:59:23;;;;;;;14.43;9.88;;;;;;;17.53;61.68;100203.38;5039302;28;20044;-67
2022/10/12 10:02:12;;;;;;;19.65;9.75;;;;;;;17.71;60.31;100202.16;5056595;28;20045;-66
2022/10/12 10:04:39;;;;;;;18.95;9.25;;;;;;;17.88;59.93;100198.13;5044114;28;20028;-66
2022/10/12 10:07:32;;;;;;;19.05;10.85;;;;;;;17.99;59.78;100202.06;5041521;28;20036;-66
2022/10/12 10:10:21;;;;;;;22.30;11.77;;;;;;;18.17;58.77;100201.66;5039597;28;20155;-67
2022/10/12 10:13:00;;;;;;;18.63;10.45;;;;;;;17.96;59.14;100191.44;5037995;28;20021;-69
2022/10/12 10:15:39;;;;;;;19.23;10.30;;;;;;;17.42;60.57;100193.78;5033915;28;20033;-68
2022/10/12 10:18:19;;;;;;;19.57;12.07;;;;;;;17.76;59.69;100188.56;5029308;28;20036;-66
2022/10/12 10:20:57;;;;;;;18.55;11.07;;;;;;;17.61;59.95;100183.72;5032530;28;21028;-66
2022/10/12 10:23:43;;;;;;;21.08;12.07;;;;;;;17.91;59.51;100180.41;5034877;28;20048;-67
2022/10/12 10:26:15;;;;;;;18.23;10.63;;;;;;;18.16;59.44;100177.38;5029956;28;20041;-67
2022/10/12 10:28:43;;;;;;;15.30;10.68;;;;;;;18.35;58.24;100168.91;5035505;28;20072;-67
2022/10/12 10:31:12;;;;;;;15.27;10.18;;;;;;;18.57;57.81;100180.69;5036980;28;20025;-67
2022/10/12 10:33:38;;;;;;;23.10;13.00;;;;;;;18.67;57.26;100173.63;5040650;28;20025;-68
2022/10/12 10:36:19;;;;;;;17.67;12.48;;;;;;;18.83;57.15;100164.19;5042005;28;20055;-67
2022/10/12 10:38:59;;;;;;;21.95;14.32;;;;;;;18.88;57.25;100156.22;5031690;28;20034;-67
2022/10/12 10:41:46;;;;;;;25.13;12.40;;;;;;;18.89;56.91;100157.84;5039446;28;20029;-67
2022/10/12 10:44:32;;;;;;;21.65;12.90;;;;;;;18.74;58.19;100159.59;5038292;28;20118;-67
2022/10/12 10:47:06;;;;;;;17.63;13.38;;;;;;;18.66;57.55;100161.44;5038049;28;20048;-67
2022/10/12 10:49:56;;;;;;;27.65;13.77;;;;;;;18.66;57.94;100163.47;5033610;28;20029;-68
2022/10/12 10:52:23;;;;;;;17.77;12.47;;;;;;;18.73;57.63;100154.31;5037359;28;20039;-69
2022/10/12 10:54:58;;;;;;;20.20;13.23;;;;;;;18.77;57.30;100138.19;5038535;28;20446;-68
2022/10/12 10:57:24;;;;;;;18.70;12.95;;;;;;;18.85;56.91;100142.81;5032554;28;20508;-67
2022/10/12 10:59:56;;;;;;;24.67;12.57;;;;;;;19.02;56.47;100144.38;5050679;28;20032;-68
2022/10/12 11:02:41;;;;;;;21.00;12.55;;;;;;;18.94;56.24;100143.38;5043303;28;20030;-67
2022/10/12 11:05:12;;;;;;;23.33;13.52;;;;;;;19.24;56.16;100143.94;5041876;28;20032;-68
2022/10/12 11:07:49;;;;;;;17.90;12.52;;;;;;;19.39;55.15;100137.28;5049475;28;20036;-67
2022/10/12 11:10:28;;;;;;;27.20;15.35;;;;;;;19.48;55.12;100137.03;5050684;28;20122;-67
2022/10/12 11:13:18;;;;;;;21.58;13.50;;;;;;;19.56;54.57;100135.16;5031784;28;20482;-67
2022/10/12 11:15:47;;;;;;;;;;;;;;;19.40;54.88;100133.25;5050520;28;20499;-69
2022/10/12 11:18:15;;;;;;;17.67;12.45;;;;;;;19.14;55.00;100126.34;5051463;28;19912;-68
2022/10/12 11:21:00;;;;;;;19.45;13.00;;;;;;;19.27;54.58;100123.31;5050799;28;20028;-69
2022/10/12 11:24:06;;;;;;;18.60;13.73;;;;;;;19.27;54.31;100126.16;5049894;28;20033;-68